createdAt,value
2024-02-24T00:00:07.712Z,87.685
2024-02-24T00:01:07.469Z,87.824
2024-02-24T00:02:07.329Z,87.954
2024-02-24T00:03:07.312Z,87.864
2024-02-24T00:04:07.022Z,87.948
2024-02-24T00:05:08.059Z,87.870
2024-02-24T00:06:08.487Z,87.748
2024-02-24T00:07:07.281Z,87.986
2024-02-24T00:08:07.309Z,87.879
2024-02-24T00:10:07.962Z,87.935
2024-02-24T00:11:08.108Z,88.030
2024-02-24T00:12:07.321Z,88.245
2024-02-24T00:13:07.562Z,88.520
2024-02-24T00:14:07.403Z,88.537
2024-02-24T00:15:07.328Z,88.465
2024-02-24T00:16:08.023Z,88.587
2024-02-24T00:17:07.987Z,88.551
2024-02-24T00:18:07.663Z,88.612
2024-02-24T00:19:07.872Z,88.593
2024-02-24T00:20:08.215Z,88.873
2024-02-24T00:21:07.199Z,88.732
2024-02-24T00:22:08.015Z,88.947
2024-02-24T00:23:07.824Z,88.913
2024-02-24T00:25:07.395Z,89.022
2024-02-24T00:26:07.117Z,88.892
2024-02-24T00:27:07.890Z,88.984
2024-02-24T00:29:07.629Z,88.888
2024-02-24T00:30:07.640Z,89.130
2024-02-24T00:31:07.421Z,89.357
2024-02-24T00:32:07.321Z,89.144
2024-02-24T00:33:07.194Z,89.211
2024-02-24T00:34:08.143Z,88.993
2024-02-24T00:35:07.970Z,88.928
2024-02-24T00:36:07.933Z,89.085
2024-02-24T00:37:07.632Z,89.203
2024-02-24T00:38:07.418Z,89.151
2024-02-24T00:39:07.233Z,89.079
2024-02-24T00:40:08.004Z,89.102
2024-02-24T00:41:08.097Z,89.430
2024-02-24T00:42:07.826Z,89.071
2024-02-24T00:44:07.188Z,89.266
2024-02-24T00:45:07.962Z,89.323
2024-02-24T00:46:07.578Z,89.386
2024-02-24T00:47:07.264Z,89.390
2024-02-24T00:48:07.604Z,89.508
2024-02-24T00:49:07.550Z,89.354
2024-02-24T00:50:07.425Z,89.470
2024-02-24T00:51:07.119Z,89.584
2024-02-24T00:52:07.871Z,89.682
2024-02-24T00:53:07.615Z,89.615
2024-02-24T00:54:07.416Z,89.409
2024-02-24T00:55:07.123Z,89.640
2024-02-24T00:56:08.104Z,89.630
2024-02-24T00:58:07.691Z,89.655
2024-02-24T00:59:07.403Z,89.703
2024-02-24T01:00:07.228Z,89.718
2024-02-24T01:01:08.229Z,89.775
2024-02-24T01:02:07.492Z,89.819
2024-02-24T01:04:07.266Z,89.823
2024-02-24T01:05:07.249Z,90.031
2024-02-24T01:06:07.985Z,89.857
2024-02-24T01:07:08.064Z,89.880
2024-02-24T01:08:08.012Z,89.867
2024-02-24T01:09:07.595Z,89.789
2024-02-24T01:10:07.260Z,89.859
2024-02-24T01:11:07.221Z,90.004
2024-02-24T01:12:07.304Z,89.815
2024-02-24T01:14:08.327Z,89.794
2024-02-24T01:15:07.749Z,89.718
2024-02-24T01:17:07.349Z,89.554
2024-02-24T01:18:08.386Z,89.474
2024-02-24T01:19:07.964Z,89.586
2024-02-24T01:20:07.806Z,89.703
2024-02-24T01:21:07.689Z,89.682
2024-02-24T01:22:07.573Z,89.716
2024-02-24T01:23:07.270Z,89.832
2024-02-24T01:25:07.815Z,89.804
2024-02-24T01:26:07.655Z,89.806
2024-02-24T01:27:07.403Z,89.752
2024-02-24T01:28:07.168Z,89.779
2024-02-24T01:29:07.939Z,89.979
2024-02-24T01:30:08.052Z,89.956
2024-02-24T01:31:08.075Z,89.802
2024-02-24T01:32:07.957Z,89.842
2024-02-24T01:33:07.511Z,89.773
2024-02-24T01:34:07.505Z,89.890
2024-02-24T01:35:07.426Z,89.954
2024-02-24T01:36:07.663Z,89.974
2024-02-24T01:37:07.411Z,90.029
2024-02-24T01:38:07.162Z,90.092
2024-02-24T01:40:07.870Z,90.113
2024-02-24T01:41:07.679Z,90.103
2024-02-24T01:42:07.466Z,90.078
2024-02-24T01:43:07.121Z,90.113
2024-02-24T01:44:07.871Z,90.017
2024-02-24T01:46:07.683Z,90.538
2024-02-24T01:47:07.791Z,90.452
2024-02-24T01:48:08.128Z,90.645
2024-02-24T01:49:07.651Z,90.653
2024-02-24T01:50:07.966Z,90.612
2024-02-24T01:51:07.955Z,90.620
2024-02-24T01:52:07.554Z,90.677
2024-02-24T01:53:07.315Z,90.645
2024-02-24T01:54:07.124Z,90.674
2024-02-24T01:55:07.764Z,90.790
2024-02-24T01:57:07.472Z,90.670
2024-02-24T01:58:07.322Z,90.757
2024-02-24T01:59:07.088Z,90.885
2024-02-24T02:02:08.046Z,90.727
2024-02-24T02:04:07.669Z,90.675
2024-02-24T02:05:08.242Z,90.605
2024-02-24T02:06:07.811Z,90.603
2024-02-24T02:07:07.818Z,90.664
2024-02-24T02:08:07.925Z,90.590
2024-02-24T02:09:07.779Z,90.542
2024-02-24T02:12:12.661Z,90.897
2024-02-24T02:13:07.557Z,90.784
2024-02-24T02:14:07.292Z,90.656
2024-02-24T02:17:07.682Z,90.862
2024-02-24T02:18:08.345Z,90.798
2024-02-24T02:19:08.399Z,90.826
2024-02-24T02:20:07.672Z,91.011
2024-02-24T02:21:07.733Z,91.168
2024-02-24T02:22:07.337Z,91.116
2024-02-24T02:23:07.189Z,91.076
2024-02-24T02:24:08.012Z,91.137
2024-02-24T02:25:07.728Z,91.120
2024-02-24T02:26:07.500Z,91.091
2024-02-24T02:27:07.352Z,90.904
2024-02-24T02:28:07.393Z,90.967
2024-02-24T02:29:08.079Z,90.956
2024-02-24T02:30:07.989Z,91.013
2024-02-24T02:31:07.624Z,90.933
2024-02-24T02:32:07.437Z,90.923
2024-02-24T02:33:08.192Z,91.061
2024-02-24T02:34:08.433Z,90.916
2024-02-24T02:35:07.352Z,91.057
2024-02-24T02:36:07.202Z,90.931
2024-02-24T02:37:08.046Z,91.154
2024-02-24T02:38:07.755Z,91.183
2024-02-24T02:39:07.497Z,91.282
2024-02-24T02:42:07.897Z,91.265
2024-02-24T02:43:07.677Z,91.477
2024-02-24T02:44:07.410Z,91.423
2024-02-24T02:45:07.180Z,91.524
2024-02-24T02:46:07.892Z,91.612
2024-02-24T02:47:17.698Z,91.566
2024-02-24T02:49:08.559Z,91.732
2024-02-24T02:50:07.967Z,91.732
2024-02-24T02:51:07.680Z,91.625
2024-02-24T02:52:07.342Z,91.713
2024-02-24T02:53:07.019Z,91.614
2024-02-24T02:54:07.799Z,91.646
2024-02-24T02:56:07.231Z,91.869
2024-02-24T02:57:07.903Z,91.854
2024-02-24T02:58:07.543Z,91.831
2024-02-24T02:59:07.212Z,91.953
2024-02-24T03:00:07.099Z,92.163
2024-02-24T03:01:08.161Z,92.053
2024-02-24T03:02:07.311Z,92.030
2024-02-24T03:03:07.080Z,92.049
2024-02-24T03:04:08.089Z,92.081
2024-02-24T03:07:07.184Z,92.165
2024-02-24T03:08:07.894Z,92.205
2024-02-24T03:09:07.625Z,91.988
2024-02-24T03:10:07.374Z,92.047
2024-02-24T03:11:07.582Z,92.207
2024-02-24T03:12:08.181Z,92.005
2024-02-24T03:13:07.366Z,92.169
2024-02-24T03:14:07.058Z,92.047
2024-02-24T03:15:07.863Z,92.133
2024-02-24T03:16:07.716Z,91.982
2024-02-24T03:17:07.557Z,91.955
2024-02-24T03:18:07.751Z,91.971
2024-02-24T03:19:07.261Z,92.125
2024-02-24T03:20:07.189Z,92.201
2024-02-24T03:21:07.267Z,92.116
2024-02-24T03:22:07.898Z,92.032
2024-02-24T03:23:08.062Z,91.818
2024-02-24T03:25:07.624Z,91.826
2024-02-24T03:26:07.448Z,91.742
2024-02-24T03:27:07.337Z,91.913
2024-02-24T03:28:07.017Z,91.946
2024-02-24T03:29:07.970Z,92.064
2024-02-24T03:30:07.876Z,91.988
2024-02-24T03:31:07.487Z,91.980
2024-02-24T03:32:07.307Z,91.976
2024-02-24T03:33:07.709Z,92.047
2024-02-24T03:34:08.410Z,91.965
2024-02-24T03:35:07.286Z,92.045
2024-02-24T03:36:07.243Z,91.984
2024-02-24T03:37:07.945Z,92.123
2024-02-24T03:38:07.886Z,91.993
2024-02-24T03:39:07.648Z,92.087
2024-02-24T03:41:07.069Z,92.136
2024-02-24T03:42:07.993Z,92.161
2024-02-24T03:43:07.688Z,92.026
2024-02-24T03:44:07.513Z,91.913
2024-02-24T03:45:07.252Z,92.058
2024-02-24T03:46:07.932Z,92.054
2024-02-24T03:47:08.044Z,92.062
2024-02-24T03:48:08.836Z,92.106
2024-02-24T03:49:07.610Z,92.129
2024-02-24T03:50:07.627Z,92.093
2024-02-24T03:51:07.426Z,92.253
2024-02-24T03:52:07.080Z,92.352
2024-02-24T03:53:07.753Z,92.346
2024-02-24T03:55:07.221Z,92.205
2024-02-24T03:56:08.269Z,92.020
2024-02-24T03:57:07.231Z,91.984
2024-02-24T03:58:07.865Z,92.093
2024-02-24T03:59:07.691Z,91.953
2024-02-24T04:01:07.546Z,92.093
2024-02-24T04:03:07.221Z,92.285
2024-02-24T04:04:08.265Z,92.194
2024-02-24T04:05:07.235Z,92.148
2024-02-24T04:06:07.851Z,92.407
2024-02-24T04:07:07.836Z,92.308
2024-02-24T04:08:07.568Z,92.600
2024-02-24T04:09:07.854Z,92.486
2024-02-24T04:11:07.684Z,92.425
2024-02-24T04:12:08.271Z,92.468
2024-02-24T04:13:07.214Z,92.381
2024-02-24T04:14:07.941Z,92.373
2024-02-24T04:15:07.783Z,92.377
2024-02-24T04:16:07.400Z,92.413
2024-02-24T04:17:07.225Z,92.280
2024-02-24T04:18:08.640Z,92.169
2024-02-24T04:20:07.277Z,92.232
2024-02-24T04:21:08.081Z,92.306
2024-02-24T04:22:07.744Z,92.379
2024-02-24T04:23:07.474Z,92.333
2024-02-24T04:25:07.001Z,92.379
2024-02-24T04:26:07.814Z,92.249
2024-02-24T04:27:07.534Z,92.394
2024-02-24T04:28:07.145Z,92.367
2024-02-24T04:29:08.013Z,92.440
2024-02-24T04:30:07.804Z,92.413
2024-02-24T04:31:07.465Z,92.308
2024-02-24T04:32:07.168Z,92.337
2024-02-24T04:33:07.673Z,92.377
2024-02-24T04:34:08.604Z,92.438
2024-02-24T04:35:07.487Z,92.383
2024-02-24T04:36:07.700Z,92.444
2024-02-24T04:37:07.311Z,92.623
2024-02-24T04:38:08.191Z,92.505
2024-02-24T04:39:07.258Z,92.520
2024-02-24T04:40:08.009Z,92.659
2024-02-24T04:41:07.729Z,92.604
2024-02-24T04:43:07.187Z,92.659
2024-02-24T04:44:07.877Z,92.659
2024-02-24T04:45:07.755Z,92.688
2024-02-24T04:46:07.432Z,92.802
2024-02-24T04:47:07.064Z,92.760
2024-02-24T04:48:08.843Z,92.730
2024-02-24T04:49:07.392Z,92.844
2024-02-24T04:50:07.334Z,92.741
2024-02-24T04:51:11.546Z,92.962
2024-02-24T04:52:07.192Z,92.962
2024-02-24T04:53:07.898Z,92.981
2024-02-24T04:54:07.690Z,92.894
2024-02-24T04:55:07.401Z,93.014
2024-02-24T04:56:07.157Z,93.025
2024-02-24T04:57:07.972Z,93.042
2024-02-24T04:59:07.341Z,92.911
2024-02-24T05:00:07.097Z,93.010
2024-02-24T05:01:08.089Z,93.039
2024-02-24T05:02:08.002Z,93.052
2024-02-24T05:04:07.560Z,93.161
2024-02-24T05:05:07.307Z,93.092
2024-02-24T05:06:07.831Z,93.067
2024-02-24T05:07:07.965Z,93.109
2024-02-24T05:08:07.788Z,93.067
2024-02-24T05:09:08.494Z,92.966
2024-02-24T05:10:07.463Z,93.098
2024-02-24T05:11:07.322Z,93.065
2024-02-24T05:12:07.555Z,93.060
2024-02-24T05:13:11.438Z,93.044
2024-02-24T05:15:07.863Z,93.065
2024-02-24T05:16:07.545Z,93.180
2024-02-24T05:17:07.150Z,93.090
2024-02-24T05:18:08.905Z,93.180
2024-02-24T05:19:07.371Z,93.060
2024-02-24T05:20:07.612Z,93.100
2024-02-24T05:21:07.606Z,93.062
2024-02-24T05:22:07.192Z,93.149
2024-02-24T05:23:07.888Z,93.245
2024-02-24T05:24:07.713Z,93.189
2024-02-24T05:25:07.506Z,93.252
2024-02-24T05:26:07.253Z,93.399
2024-02-24T05:28:07.727Z,93.479
2024-02-24T05:29:07.478Z,93.498
2024-02-24T05:30:07.396Z,93.464
2024-02-24T05:33:09.065Z,93.468
2024-02-24T05:34:08.044Z,93.498
2024-02-24T05:35:07.115Z,93.565
2024-02-24T05:36:07.986Z,93.525
2024-02-24T05:37:07.706Z,93.577
2024-02-24T05:38:07.445Z,93.544
2024-02-24T05:39:07.475Z,93.580
2024-02-24T05:40:07.141Z,93.516
2024-02-24T05:41:07.902Z,93.697
2024-02-24T05:42:07.821Z,93.413
2024-02-24T05:43:07.593Z,93.435
2024-02-24T05:44:07.345Z,93.468
2024-02-24T05:45:08.108Z,93.557
2024-02-24T05:46:11.986Z,93.575
2024-02-24T05:47:07.742Z,93.510
2024-02-24T05:48:07.986Z,93.411
2024-02-24T05:49:07.103Z,93.428
2024-02-24T05:50:08.140Z,93.384
2024-02-24T05:51:08.085Z,93.523
2024-02-24T05:52:07.762Z,93.344
2024-02-24T05:53:10.023Z,93.300
2024-02-24T05:54:07.684Z,93.218
2024-02-24T05:55:07.508Z,93.155
2024-02-24T05:56:07.521Z,93.073
2024-02-24T05:57:07.432Z,92.922
2024-02-24T05:58:07.098Z,92.877
2024-02-24T05:59:07.806Z,92.762
2024-02-24T06:00:07.605Z,92.772
2024-02-24T06:01:07.472Z,92.695
2024-02-24T06:02:07.230Z,92.800
2024-02-24T06:03:07.288Z,92.852
2024-02-24T06:05:08.079Z,92.764
2024-02-24T06:07:07.688Z,92.774
2024-02-24T06:08:07.551Z,92.825
2024-02-24T06:09:07.602Z,92.686
2024-02-24T06:10:07.464Z,92.751
2024-02-24T06:11:07.621Z,92.703
2024-02-24T06:12:08.064Z,92.550
2024-02-24T06:13:07.071Z,92.529
2024-02-24T06:14:07.674Z,92.518
2024-02-24T06:15:07.523Z,92.398
2024-02-24T06:16:07.243Z,92.480
2024-02-24T06:17:08.027Z,92.444
2024-02-24T06:18:08.674Z,92.556
2024-02-24T06:19:08.058Z,92.522
2024-02-24T06:21:07.943Z,92.344
2024-02-24T06:22:08.029Z,92.140
2024-02-24T06:25:07.779Z,92.045
2024-02-24T06:26:07.445Z,91.871
2024-02-24T06:27:07.261Z,91.812
2024-02-24T06:28:08.036Z,91.740
2024-02-24T06:29:07.707Z,91.644
2024-02-24T06:30:07.826Z,91.450
2024-02-24T06:31:07.460Z,91.158
2024-02-24T06:34:13.056Z,90.271
2024-02-24T06:37:07.643Z,90.218
2024-02-24T06:38:07.361Z,90.328
2024-02-24T06:39:07.167Z,90.263
2024-02-24T06:40:10.715Z,90.256
2024-02-24T06:41:07.778Z,90.450
2024-02-24T06:42:07.656Z,90.698
2024-02-24T06:43:07.323Z,90.916
2024-02-24T06:44:07.020Z,91.005
2024-02-24T06:45:07.879Z,91.120
2024-02-24T06:46:07.765Z,91.267
2024-02-24T06:47:21.128Z,91.190
2024-02-24T06:49:09.149Z,91.343
2024-02-24T06:50:07.599Z,91.353
2024-02-24T06:51:07.569Z,91.593
2024-02-24T06:52:07.406Z,91.580
2024-02-24T06:53:07.144Z,91.581
2024-02-24T06:54:07.258Z,91.503
2024-02-24T06:55:08.199Z,91.442
2024-02-24T06:56:07.939Z,91.414
2024-02-24T06:57:10.778Z,91.416
2024-02-24T06:58:07.374Z,91.557
2024-02-24T07:00:07.948Z,91.503
2024-02-24T07:01:07.819Z,91.450
2024-02-24T07:02:07.698Z,91.379
2024-02-24T07:03:08.250Z,91.517
2024-02-24T07:04:07.311Z,91.385
2024-02-24T07:07:07.934Z,91.438
2024-02-24T07:08:08.158Z,91.416
2024-02-24T07:09:08.094Z,91.309
2024-02-24T07:10:07.791Z,91.129
2024-02-24T07:11:07.785Z,91.061
2024-02-24T07:12:08.185Z,91.005
2024-02-24T07:13:07.013Z,90.935
2024-02-24T07:14:07.903Z,90.931
2024-02-24T07:15:07.782Z,90.868
2024-02-24T07:16:07.483Z,90.710
2024-02-24T07:17:07.145Z,90.649
2024-02-24T07:18:07.779Z,90.683
2024-02-24T07:19:08.199Z,90.454
2024-02-24T07:20:07.088Z,90.471
2024-02-24T07:21:09.879Z,90.340
2024-02-24T07:22:07.673Z,90.304
2024-02-24T07:23:07.310Z,90.084
2024-02-24T07:26:07.556Z,89.880
2024-02-24T07:27:07.760Z,89.869
2024-02-24T07:28:07.411Z,89.846
2024-02-24T07:31:07.688Z,89.430
2024-02-24T07:33:08.009Z,88.892
2024-02-24T07:34:08.316Z,88.858
2024-02-24T07:36:07.399Z,89.199
2024-02-24T07:39:07.737Z,88.438
2024-02-24T07:40:07.505Z,88.545
2024-02-24T07:41:07.137Z,88.316
2024-02-24T07:42:07.890Z,88.007
2024-02-24T07:44:07.224Z,88.022
2024-02-24T07:45:07.267Z,88.062
2024-02-24T07:46:07.030Z,87.591
2024-02-24T07:47:07.837Z,87.856
2024-02-24T07:48:08.105Z,87.944
2024-02-24T07:49:07.701Z,87.662
2024-02-24T07:50:07.510Z,87.391
2024-02-24T07:51:07.786Z,86.821
2024-02-24T07:52:07.533Z,86.473
2024-02-24T07:53:07.221Z,87.067
2024-02-24T07:54:08.155Z,86.329
2024-02-24T07:55:07.862Z,86.525
2024-02-24T07:56:07.561Z,86.386
2024-02-24T07:57:07.725Z,86.964
2024-02-24T07:58:07.421Z,86.912
2024-02-24T08:01:07.963Z,86.666
2024-02-24T08:03:07.921Z,86.094
2024-02-24T08:04:07.768Z,86.121
2024-02-24T08:05:07.751Z,85.800
2024-02-24T08:06:09.080Z,86.393
2024-02-24T08:08:07.512Z,85.476
2024-02-24T08:09:07.239Z,85.810
2024-02-24T08:10:08.031Z,85.915
2024-02-24T08:11:09.874Z,85.047
2024-02-24T08:12:08.449Z,85.285
2024-02-24T08:13:07.373Z,85.373
2024-02-24T08:16:07.030Z,84.311
2024-02-24T08:17:07.701Z,84.436
2024-02-24T08:18:07.897Z,83.971
2024-02-24T08:19:07.536Z,84.541
2024-02-24T08:20:07.483Z,83.975
2024-02-24T08:21:07.741Z,83.818
2024-02-24T08:22:07.692Z,83.857
2024-02-24T08:23:07.443Z,83.155
2024-02-24T08:24:07.190Z,83.136
2024-02-24T08:25:08.156Z,82.924
2024-02-24T08:26:07.138Z,82.083
2024-02-24T08:27:07.033Z,81.596
2024-02-24T08:28:07.746Z,80.669
2024-02-24T08:29:07.395Z,81.367
2024-02-24T08:30:08.024Z,80.635
2024-02-24T08:31:07.799Z,80.692
2024-02-24T08:32:07.817Z,80.282
2024-02-24T08:33:08.156Z,79.597
2024-02-24T08:34:07.641Z,80.387
2024-02-24T08:35:07.950Z,80.805
2024-02-24T08:36:08.536Z,80.524
2024-02-24T08:37:07.660Z,81.114
2024-02-24T08:38:07.359Z,81.039
2024-02-24T08:39:07.722Z,80.954
2024-02-24T08:40:07.732Z,80.687
2024-02-24T08:41:07.354Z,80.109
2024-02-24T08:42:07.156Z,80.435
2024-02-24T08:43:07.808Z,80.698
2024-02-24T08:44:07.496Z,80.143
2024-02-24T08:45:07.205Z,79.336
2024-02-24T08:46:10.532Z,80.097
2024-02-24T08:47:07.309Z,79.924
2024-02-24T08:48:07.674Z,79.874
2024-02-24T08:49:08.105Z,79.761
2024-02-24T08:50:08.182Z,79.796
2024-02-24T08:51:07.538Z,80.442
2024-02-24T08:53:07.279Z,80.288
2024-02-24T08:54:08.109Z,79.456
2024-02-24T08:55:07.758Z,79.351
2024-02-24T08:56:07.466Z,79.845
2024-02-24T08:57:07.375Z,79.452
2024-02-24T08:58:07.220Z,79.863
2024-02-24T08:59:07.903Z,80.595
2024-02-24T09:00:07.807Z,80.440
2024-02-24T09:02:07.407Z,80.753
2024-02-24T09:03:07.399Z,80.532
2024-02-24T09:04:07.643Z,81.575
2024-02-24T09:05:07.324Z,80.532
2024-02-24T09:06:07.914Z,81.188
2024-02-24T09:07:07.469Z,81.139
2024-02-24T09:08:07.611Z,81.537
2024-02-24T09:09:07.506Z,81.718
2024-02-24T09:10:09.997Z,81.461
2024-02-24T09:13:08.032Z,82.033
2024-02-24T09:14:07.716Z,82.067
2024-02-24T09:15:07.586Z,81.739
2024-02-24T09:16:07.231Z,81.797
2024-02-24T09:18:08.190Z,81.312
2024-02-24T09:19:07.761Z,81.938
2024-02-24T09:20:07.425Z,81.766
2024-02-24T09:21:09.785Z,81.604
2024-02-24T09:22:07.827Z,81.453
2024-02-24T09:23:07.557Z,81.610
2024-02-24T09:25:07.946Z,81.179
2024-02-24T09:26:07.641Z,81.068
2024-02-24T09:27:07.532Z,81.032
2024-02-24T09:28:08.390Z,80.574
2024-02-24T09:30:07.421Z,80.627
2024-02-24T09:31:07.130Z,80.671
2024-02-24T09:32:07.907Z,80.975
2024-02-24T09:33:08.342Z,80.978
2024-02-24T09:34:11.453Z,81.100
2024-02-24T09:35:07.968Z,81.575
2024-02-24T09:36:07.999Z,81.602
2024-02-24T09:37:07.670Z,81.724
2024-02-24T09:39:07.187Z,82.224
2024-02-24T09:40:10.673Z,82.769
2024-02-24T09:41:07.620Z,83.221
2024-02-24T09:43:07.183Z,83.498
2024-02-24T09:44:07.919Z,83.034
2024-02-24T09:45:07.734Z,83.590
2024-02-24T09:46:07.396Z,83.950
2024-02-24T09:47:07.058Z,83.233
2024-02-24T09:48:08.456Z,83.649
2024-02-24T09:49:08.596Z,83.681
2024-02-24T09:50:07.480Z,83.807
2024-02-24T09:51:07.880Z,83.717
2024-02-24T09:52:07.618Z,83.691
2024-02-24T09:53:07.259Z,83.345
2024-02-24T09:54:07.329Z,83.221
2024-02-24T09:55:07.985Z,83.124
2024-02-24T09:56:07.711Z,83.563
2024-02-24T09:57:07.532Z,83.254
2024-02-24T09:58:07.310Z,82.954
2024-02-24T10:00:07.537Z,83.136
2024-02-24T10:01:07.398Z,82.893
2024-02-24T10:04:07.885Z,82.834
2024-02-24T10:05:07.903Z,82.556
2024-02-24T10:06:08.862Z,82.479
2024-02-24T10:07:07.957Z,82.325
2024-02-24T10:08:07.614Z,82.083
2024-02-24T10:10:07.158Z,81.400
2024-02-24T10:11:08.100Z,81.165
2024-02-24T10:12:07.451Z,80.950
2024-02-24T10:14:06.991Z,80.088
2024-02-24T10:15:07.856Z,79.502
2024-02-24T10:16:07.514Z,78.987
2024-02-24T10:17:07.200Z,79.155
2024-02-24T10:18:09.266Z,78.791
2024-02-24T10:19:08.234Z,78.514
2024-02-24T10:20:07.437Z,78.251
2024-02-24T10:21:07.618Z,77.560
2024-02-24T10:22:07.345Z,77.335
2024-02-24T10:23:07.023Z,77.192
2024-02-24T10:24:07.944Z,77.043
2024-02-24T10:25:07.579Z,76.565
2024-02-24T10:26:07.599Z,75.914
2024-02-24T10:27:07.812Z,76.031
2024-02-24T10:28:08.018Z,75.262
2024-02-24T10:29:07.641Z,75.058
2024-02-24T10:30:11.430Z,73.465
2024-02-24T10:32:10.913Z,70.297
2024-02-24T10:33:11.189Z,69.071
2024-02-24T10:34:11.074Z,68.601
2024-02-24T10:35:10.141Z,68.226
2024-02-24T10:36:11.349Z,68.073
2024-02-24T10:37:10.391Z,67.924
2024-02-24T10:38:34.425Z,67.484
2024-02-24T10:39:10.913Z,66.414
2024-02-24T10:41:07.354Z,69.023
2024-02-24T10:43:07.328Z,70.774
2024-02-24T10:44:22.724Z,70.453
2024-02-24T10:46:07.467Z,69.467
2024-02-24T10:47:07.373Z,67.877
2024-02-24T10:48:08.011Z,67.959
2024-02-24T10:49:08.012Z,67.215
2024-02-24T10:50:07.211Z,66.448
2024-02-24T10:51:07.431Z,66.965
2024-02-24T10:53:08.323Z,66.400
2024-02-24T10:54:07.684Z,66.660
2024-02-24T10:55:07.608Z,65.559
2024-02-24T10:56:07.301Z,65.073
2024-02-24T10:57:08.450Z,65.853
2024-02-24T10:58:07.121Z,66.412
2024-02-24T10:59:07.821Z,66.242
2024-02-24T11:00:07.936Z,65.305
2024-02-24T11:01:08.292Z,65.525
2024-02-24T11:02:07.803Z,66.280
2024-02-24T11:04:07.953Z,63.757
2024-02-24T11:05:07.286Z,65.853
2024-02-24T11:06:07.815Z,65.126
2024-02-24T11:07:08.520Z,65.031
2024-02-24T11:08:08.087Z,65.181
2024-02-24T11:09:08.128Z,64.554
2024-02-24T11:10:07.881Z,65.199
2024-02-24T11:11:07.884Z,63.104
2024-02-24T11:12:08.145Z,64.256
2024-02-24T11:13:07.114Z,64.283
2024-02-24T11:14:16.090Z,63.003
2024-02-24T11:15:08.326Z,63.650
2024-02-24T11:16:07.232Z,64.346
2024-02-24T11:17:08.214Z,64.796
2024-02-24T11:18:09.012Z,65.050
2024-02-24T11:19:07.471Z,64.516
2024-02-24T11:21:07.581Z,63.747
2024-02-24T11:22:07.994Z,63.198
2024-02-24T11:24:07.681Z,62.790
2024-02-24T11:25:07.436Z,63.047
2024-02-24T11:28:07.694Z,63.326
2024-02-24T11:29:07.400Z,63.308
2024-02-24T11:30:07.535Z,63.318
2024-02-24T11:31:07.365Z,61.927
2024-02-24T11:33:08.076Z,59.877
2024-02-24T11:34:07.458Z,60.106
2024-02-24T11:35:07.934Z,59.204
2024-02-24T11:36:08.065Z,59.192
2024-02-24T11:37:07.819Z,59.780
2024-02-24T11:39:07.384Z,60.470
2024-02-24T11:40:07.149Z,59.879
2024-02-24T11:41:08.008Z,59.246
2024-02-24T11:42:07.903Z,58.988
2024-02-24T11:43:07.602Z,58.021
2024-02-24T11:44:07.278Z,58.334
2024-02-24T11:45:07.711Z,58.311
2024-02-24T11:46:07.870Z,58.303
2024-02-24T11:48:08.221Z,59.179
2024-02-24T11:49:08.610Z,58.216
2024-02-24T11:50:07.620Z,58.191
2024-02-24T11:51:07.594Z,58.261
2024-02-24T11:53:08.010Z,59.288
2024-02-24T11:54:07.854Z,58.405
2024-02-24T11:55:07.506Z,57.428
2024-02-24T11:56:07.158Z,56.476
2024-02-24T11:57:11.500Z,57.718
2024-02-24T11:59:07.342Z,57.361
2024-02-24T12:00:07.527Z,56.310
2024-02-24T12:01:07.647Z,56.600
2024-02-24T12:03:07.369Z,56.364
2024-02-24T12:04:07.369Z,56.604
2024-02-24T12:05:07.360Z,56.345
2024-02-24T12:06:07.601Z,56.490
2024-02-24T12:07:07.971Z,57.241
2024-02-24T12:08:08.028Z,57.809
2024-02-24T12:09:08.015Z,57.466
2024-02-24T12:10:07.832Z,57.771
2024-02-24T12:11:07.717Z,57.792
2024-02-24T12:12:08.194Z,57.525
2024-02-24T12:13:07.971Z,58.279
2024-02-24T12:14:07.641Z,57.321
2024-02-24T12:15:11.522Z,57.384
2024-02-24T12:17:07.089Z,57.746
2024-02-24T12:18:08.757Z,57.468
2024-02-24T12:19:07.342Z,58.740
2024-02-24T12:20:07.357Z,59.112
2024-02-24T12:21:07.474Z,58.914
2024-02-24T12:22:07.459Z,58.874
2024-02-24T12:23:07.193Z,59.829
2024-02-24T12:24:08.368Z,59.030
2024-02-24T12:25:07.248Z,61.386
2024-02-24T12:26:06.992Z,60.110
2024-02-24T12:27:08.269Z,60.514
2024-02-24T12:28:07.976Z,61.296
2024-02-24T12:29:07.744Z,60.981
2024-02-24T12:31:07.390Z,60.354
2024-02-24T12:32:07.059Z,61.668
2024-02-24T12:33:08.703Z,61.149
2024-02-24T12:34:07.949Z,61.180
2024-02-24T12:36:08.041Z,61.626
2024-02-24T12:37:08.025Z,61.138
2024-02-24T12:38:07.938Z,59.490
2024-02-24T12:39:08.147Z,58.631
2024-02-24T12:40:07.174Z,58.822
2024-02-24T12:41:07.836Z,58.950
2024-02-24T12:42:08.211Z,58.538
2024-02-24T12:43:11.418Z,57.993
2024-02-24T12:44:07.049Z,57.823
2024-02-24T12:45:08.168Z,58.046
2024-02-24T12:46:07.914Z,57.970
2024-02-24T12:47:07.677Z,57.315
2024-02-24T12:49:07.553Z,57.678
2024-02-24T12:50:08.186Z,57.329
2024-02-24T12:51:07.363Z,58.397
2024-02-24T12:54:11.470Z,57.592
2024-02-24T12:57:07.860Z,56.507
2024-02-24T12:58:07.520Z,55.810
2024-02-24T12:59:07.144Z,56.692
2024-02-24T13:00:07.321Z,55.295
2024-02-24T13:01:07.165Z,54.830
2024-02-24T13:02:07.205Z,55.400
2024-02-24T13:03:08.292Z,56.142
2024-02-24T13:04:07.654Z,55.572
2024-02-24T13:05:07.776Z,56.175
2024-02-24T13:06:08.516Z,55.477
2024-02-24T13:07:07.654Z,56.304
2024-02-24T13:08:07.399Z,55.509
2024-02-24T13:09:07.887Z,56.701
2024-02-24T13:10:07.369Z,56.503
2024-02-24T13:11:07.506Z,56.770
2024-02-24T13:12:08.216Z,55.032
2024-02-24T13:13:07.257Z,55.780
2024-02-24T13:14:08.263Z,54.260
2024-02-24T13:15:07.210Z,54.080
2024-02-24T13:16:07.957Z,53.604
2024-02-24T13:17:07.623Z,54.449
2024-02-24T13:18:08.253Z,54.504
2024-02-24T13:19:08.487Z,54.605
2024-02-24T13:21:08.326Z,56.984
2024-02-24T13:22:08.062Z,56.093
2024-02-24T13:23:07.862Z,57.098
2024-02-24T13:24:07.694Z,55.700
2024-02-24T13:25:07.433Z,55.845
2024-02-24T13:27:07.954Z,54.111
2024-02-24T13:28:07.667Z,54.769
2024-02-24T13:29:07.346Z,55.318
2024-02-24T13:30:07.944Z,55.488
2024-02-24T13:31:07.650Z,55.902
2024-02-24T13:32:07.320Z,55.685
2024-02-24T13:33:07.824Z,56.263
2024-02-24T13:34:07.792Z,55.229
2024-02-24T13:35:07.803Z,54.704
2024-02-24T13:36:07.943Z,54.832
2024-02-24T13:37:11.365Z,54.233
2024-02-24T13:38:07.065Z,54.563
2024-02-24T13:39:08.289Z,54.016
2024-02-24T13:40:07.010Z,53.686
2024-02-24T13:41:07.673Z,54.183
2024-02-24T13:42:07.741Z,54.348
2024-02-24T13:43:07.398Z,54.693
2024-02-24T13:46:07.322Z,54.594
2024-02-24T13:47:07.996Z,55.114
2024-02-24T13:48:08.446Z,55.673
2024-02-24T13:49:08.630Z,55.240
2024-02-24T13:50:07.860Z,55.271
2024-02-24T13:51:07.641Z,55.652
2024-02-24T13:53:08.264Z,54.964
2024-02-24T13:54:07.239Z,54.945
2024-02-24T13:55:08.127Z,54.773
2024-02-24T13:56:07.961Z,56.224
2024-02-24T13:57:08.297Z,55.297
2024-02-24T13:58:07.103Z,56.016
2024-02-24T13:59:07.889Z,56.169
2024-02-24T14:00:07.941Z,56.036
2024-02-24T14:01:07.667Z,55.522
2024-02-24T14:02:07.703Z,55.727
2024-02-24T14:03:07.478Z,56.394
2024-02-24T14:04:07.282Z,55.360
2024-02-24T14:05:07.495Z,54.491
2024-02-24T14:06:08.354Z,54.315
2024-02-24T14:07:07.350Z,54.626
2024-02-24T14:08:07.311Z,54.626
2024-02-24T14:09:07.693Z,54.740
2024-02-24T14:10:07.761Z,55.095
2024-02-24T14:11:07.810Z,53.943
2024-02-24T14:12:08.334Z,54.193
2024-02-24T14:13:07.156Z,54.668
2024-02-24T14:14:07.904Z,53.932
2024-02-24T14:15:07.973Z,54.861
2024-02-24T14:16:07.666Z,54.372
2024-02-24T14:17:07.328Z,54.218
2024-02-24T14:18:07.684Z,55.074
2024-02-24T14:19:08.735Z,55.559